Stephen Scott — WCW8842 — position and weather

sailwx.info

Track history (hours):
 
Tides and Currents Weather Stations Pressure Air Temp Water Temp Dewpoint Dewpoint Depression Visibility Wind Speed Wind Dir Waves Ship Positions

Stephen Scott

Owner: H A REINAUER INC, STATEN ISLAND, NY. More information available from US FCC via Universal Licensing System and Coast Guard Vessel Documentation Center.

Last reported at 2016-Feb-12 18:27 UTC. Time now 2016-Feb-13 08:55 UTC.
Position N 40°35' W 074°13'.

Length 30 m; draft 2 m.

Type: Towing. MMSI: 366245490.

Date/timePositionNaut miles runAvg speedWind from/ knotsBaromVisibWave heightAir tempDewpointWater temp
2016-Feb-12 18:27N 40°35' W 074°13'6 6.6
2016-Feb-12 17:33N 40°39' W 074°07'5 4.8
2016-Feb-12 16:33N 40°40' W 074°01'0 0.1
2016-Feb-12 15:33N 40°40' W 074°01'0 0.0
2016-Feb-12 14:33N 40°40' W 074°01'0 0.1
2016-Feb-12 13:31N 40°40' W 074°01'4 3.6
2016-Feb-12 12:33N 40°39' W 074°05'4 0.3
2016-Feb-11 23:29N 40°39' W 074°11'8 3.5
2016-Feb-11 21:16N 40°40' W 074°01'0 0.0
2016-Feb-11 20:31N 40°40' W 074°01'0 0.0
2016-Feb-11 19:31N 40°40' W 074°01'0 0.0
2016-Feb-11 18:19N 40°40' W 074°01'0 0.0
2016-Feb-11 17:31N 40°40' W 074°01'0 0.0
2016-Feb-11 16:31N 40°40' W 074°01'3 2.9
2016-Feb-11 15:33N 40°39' W 074°05'6 1.4
2016-Feb-11 11:20N 40°38' W 074°12'4 0.3
2016-Feb-10 21:28N 40°39' W 074°07'5 5.3
2016-Feb-10 20:33N 40°40' W 074°01'0 0.0
2016-Feb-10 19:33N 40°40' W 074°01'0 0.0
2016-Feb-10 18:30N 40°40' W 074°01'1 1.4
2016-Feb-10 17:33N 40°39' W 074°03'1 1.2
2016-Feb-10 16:30N 40°40' W 074°01'0 0.1
2016-Feb-10 15:33N 40°40' W 074°01'9 0.9
2016-Feb-10 05:19N 40°37' W 074°12'4 4.6
2016-Feb-10 04:32N 40°38' W 074°08'0 0.0
2016-Feb-10 03:32N 40°38' W 074°08'0 0.0
2016-Feb-10 02:32N 40°38' W 074°08'0 0.0
2016-Feb-10 01:32N 40°38' W 074°08'0 0.0
2016-Feb-10 00:32N 40°38' W 074°08'0 0.0
2016-Feb-09 23:32N 40°38' W 074°08'1 1.1
2016-Feb-09 22:32N 40°39' W 074°09'1 0.9
2016-Feb-09 21:33N 40°40' W 074°08'4 0.6
2016-Feb-09 14:33N 40°36' W 074°12'4 3.8
2016-Feb-09 13:31N 40°38' W 074°08'1 1.5
2016-Feb-09 12:33N 40°40' W 074°09'1 1.1
2016-Feb-09 11:33N 40°41' W 074°08'4 4.4
2016-Feb-09 10:33N 40°38' W 074°12'0 0.0
2016-Feb-09 09:30N 40°38' W 074°12'0 0.1
2016-Feb-09 08:03N 40°38' W 074°12'0 0.3
2016-Feb-09 07:33N 40°38' W 074°12'0 0.0
2016-Feb-08 21:33N 40°38' W 074°12'  
2016-Feb-06 02:31N 40°36' W 074°12'0 0.0
2016-Feb-06 01:32N 40°36' W 074°12'0 0.0
2016-Feb-06 00:31N 40°36' W 074°12'0 0.0
2016-Feb-05 23:13N 40°36' W 074°12'0 0.0
2016-Feb-05 22:04N 40°36' W 074°12'0 0.0
2016-Feb-05 21:28N 40°36' W 074°12'1 0.6
2016-Feb-05 19:18N 40°35' W 074°13'1 1.3
2016-Feb-05 18:19N 40°36' W 074°12'0 0.0
2016-Feb-05 17:31N 40°36' W 074°12'0 0.1
2016-Feb-05 16:24N 40°36' W 074°12'2 0.1
2016-Feb-03 19:33N 40°38' W 074°12'0 0.4
2016-Feb-03 18:30N 40°38' W 074°12'0 0.0
2016-Feb-03 17:27N 40°38' W 074°12'0 0.1
2016-Feb-03 16:33N 40°38' W 074°12'0 0.3
2016-Feb-03 15:33N 40°38' W 074°12'0 0.0
2016-Feb-03 14:29N 40°38' W 074°12'6 1.3
2016-Feb-03 10:07N 40°33' W 074°15'7 1.1
2016-Feb-03 03:32N 40°39' W 074°10'2 0.2
2016-Feb-02 21:06N 40°38' W 074°08'5 9.4
2016-Feb-02 20:33N 40°40' W 074°01'0 0.3
2016-Feb-02 19:33N 40°40' W 074°01'2 1.9
2016-Feb-02 18:33N 40°39' W 074°03'  
Track history (hours):
 
Tides and Currents Weather Stations Pressure Air Temp Water Temp Dewpoint Dewpoint Depression Visibility Wind Speed Wind Dir Waves Ship Positions

Stephen Scott

Owner: H A REINAUER INC, STATEN ISLAND, NY. More information available from US FCC via Universal Licensing System and Coast Guard Vessel Documentation Center.

Last reported at 2016-Feb-12 18:27 UTC. Time now 2016-Feb-13 08:56 UTC.
Position N 40°35' W 074°13'.

Length 30 m; draft 2 m.

Type: Towing. MMSI: 366245490.

Date/timePositionNaut miles runAvg speedWind from/ knotsBaromVisibWave heightAir tempDewpointWater temp
2016-Feb-12 18:27N 40°35' W 074°13'6 6.6
2016-Feb-12 17:33N 40°39' W 074°07'5 4.8
2016-Feb-12 16:33N 40°40' W 074°01'0 0.1
2016-Feb-12 15:33N 40°40' W 074°01'0 0.0
2016-Feb-12 14:33N 40°40' W 074°01'0 0.1
2016-Feb-12 13:31N 40°40' W 074°01'4 3.6
2016-Feb-12 12:33N 40°39' W 074°05'4 0.3
2016-Feb-11 23:29N 40°39' W 074°11'8 3.5
2016-Feb-11 21:16N 40°40' W 074°01'0 0.0
2016-Feb-11 20:31N 40°40' W 074°01'0 0.0
2016-Feb-11 19:31N 40°40' W 074°01'0 0.0
2016-Feb-11 18:19N 40°40' W 074°01'0 0.0
2016-Feb-11 17:31N 40°40' W 074°01'0 0.0
2016-Feb-11 16:31N 40°40' W 074°01'3 2.9
2016-Feb-11 15:33N 40°39' W 074°05'6 1.4
2016-Feb-11 11:20N 40°38' W 074°12'4 0.3
2016-Feb-10 21:28N 40°39' W 074°07'5 5.3
2016-Feb-10 20:33N 40°40' W 074°01'0 0.0
2016-Feb-10 19:33N 40°40' W 074°01'0 0.0
2016-Feb-10 18:30N 40°40' W 074°01'1 1.4
2016-Feb-10 17:33N 40°39' W 074°03'1 1.2
2016-Feb-10 16:30N 40°40' W 074°01'0 0.1
2016-Feb-10 15:33N 40°40' W 074°01'9 0.9
2016-Feb-10 05:19N 40°37' W 074°12'4 4.6
2016-Feb-10 04:32N 40°38' W 074°08'0 0.0
2016-Feb-10 03:32N 40°38' W 074°08'0 0.0
2016-Feb-10 02:32N 40°38' W 074°08'0 0.0
2016-Feb-10 01:32N 40°38' W 074°08'0 0.0
2016-Feb-10 00:32N 40°38' W 074°08'0 0.0
2016-Feb-09 23:32N 40°38' W 074°08'1 1.1
2016-Feb-09 22:32N 40°39' W 074°09'1 0.9
2016-Feb-09 21:33N 40°40' W 074°08'4 0.6
2016-Feb-09 14:33N 40°36' W 074°12'4 3.8
2016-Feb-09 13:31N 40°38' W 074°08'1 1.5
2016-Feb-09 12:33N 40°40' W 074°09'1 1.1
2016-Feb-09 11:33N 40°41' W 074°08'4 4.4
2016-Feb-09 10:33N 40°38' W 074°12'0 0.0
2016-Feb-09 09:30N 40°38' W 074°12'0 0.1
2016-Feb-09 08:03N 40°38' W 074°12'0 0.3
2016-Feb-09 07:33N 40°38' W 074°12'0 0.0
2016-Feb-08 21:33N 40°38' W 074°12'  
2016-Feb-06 02:31N 40°36' W 074°12'0 0.0
2016-Feb-06 01:32N 40°36' W 074°12'0 0.0
2016-Feb-06 00:31N 40°36' W 074°12'0 0.0
2016-Feb-05 23:13N 40°36' W 074°12'0 0.0
2016-Feb-05 22:04N 40°36' W 074°12'0 0.0
2016-Feb-05 21:28N 40°36' W 074°12'1 0.6
2016-Feb-05 19:18N 40°35' W 074°13'1 1.3
2016-Feb-05 18:19N 40°36' W 074°12'0 0.0
2016-Feb-05 17:31N 40°36' W 074°12'0 0.1
2016-Feb-05 16:24N 40°36' W 074°12'2 0.1
2016-Feb-03 19:33N 40°38' W 074°12'0 0.4
2016-Feb-03 18:30N 40°38' W 074°12'0 0.0
2016-Feb-03 17:27N 40°38' W 074°12'0 0.1
2016-Feb-03 16:33N 40°38' W 074°12'0 0.3
2016-Feb-03 15:33N 40°38' W 074°12'0 0.0
2016-Feb-03 14:29N 40°38' W 074°12'6 1.3
2016-Feb-03 10:07N 40°33' W 074°15'7 1.1
2016-Feb-03 03:32N 40°39' W 074°10'2 0.2
2016-Feb-02 21:06N 40°38' W 074°08'5 9.4
2016-Feb-02 20:33N 40°40' W 074°01'0 0.3
2016-Feb-02 19:33N 40°40' W 074°01'2 1.9
2016-Feb-02 18:33N 40°39' W 074°03'  

Dump ship's entire track history